createdAt,value
2022-12-11T00:02:06.285Z,99595.88
2022-12-11T00:04:54.955Z,99588.69
2022-12-11T00:07:43.812Z,99591.25
2022-12-11T00:10:37.663Z,99574.31
2022-12-11T00:13:26.848Z,99585.56
2022-12-11T00:16:15.695Z,99579.78
2022-12-11T00:19:04.982Z,99577.31
2022-12-11T00:21:53.603Z,99577.41
2022-12-11T00:24:42.250Z,99585.19
2022-12-11T00:27:32.643Z,99579.31
2022-12-11T00:30:21.421Z,99593.84
2022-12-11T00:33:10.849Z,99586.97
2022-12-11T00:35:59.558Z,99592.97
2022-12-11T00:38:50.213Z,99595.63
2022-12-11T00:41:38.893Z,99588.72
2022-12-11T00:44:29.017Z,99594.06
2022-12-11T00:47:17.858Z,99594.06
2022-12-11T00:50:08.149Z,99589.72
2022-12-11T00:52:57.113Z,99593.84
2022-12-11T00:55:45.835Z,99602.31
2022-12-11T00:58:34.562Z,99588.53
2022-12-11T01:01:26.276Z,99591.19
2022-12-11T01:04:14.969Z,99592.63
2022-12-11T01:07:03.774Z,99589.41
2022-12-11T01:10:09.986Z,99583.41
2022-12-11T01:13:02.564Z,99572.53
2022-12-11T01:15:51.526Z,99576.84
2022-12-11T01:18:42.508Z,99575.41
2022-12-11T01:21:31.561Z,99575.59
2022-12-11T01:24:20.298Z,99574.63
2022-12-11T01:27:09.131Z,99566.38
2022-12-11T01:29:57.791Z,99578.44
2022-12-11T01:32:46.506Z,99573.34
2022-12-11T01:35:36.652Z,99575.13
2022-12-11T01:38:25.301Z,99575.22
2022-12-11T01:41:14.665Z,99568.56
2022-12-11T01:44:09.736Z,99571.31
2022-12-11T01:46:58.419Z,99580.66
2022-12-11T01:49:47.166Z,99583.09
2022-12-11T01:52:37.859Z,99571.31
2022-12-11T01:55:26.581Z,99573.75
2022-12-11T01:58:16.538Z,99573.75
2022-12-11T02:01:05.712Z,99572.97
2022-12-11T02:03:55.817Z,99573.75
2022-12-11T02:06:47.838Z,99576.31
2022-12-11T02:09:42.769Z,99574.56
2022-12-11T02:12:42.463Z,99573.75
2022-12-11T02:15:38.488Z,99567.75
2022-12-11T02:18:36.591Z,99561.09
2022-12-11T02:21:29.127Z,99561.09
2022-12-11T02:24:49.350Z,99560.31
2022-12-11T02:27:46.851Z,99559.41
2022-12-11T02:30:40.598Z,99558.63
2022-12-11T02:33:38.299Z,99564.66
2022-12-11T02:36:31.691Z,99559.53
2022-12-11T02:39:22.478Z,99551.09
2022-12-11T02:42:12.929Z,99558.75
2022-12-11T02:45:04.941Z,99557.06
2022-12-11T02:47:55.274Z,99562.16
2022-12-11T02:50:47.377Z,99551.09
2022-12-11T02:53:40.037Z,99549.38
2022-12-11T02:56:35.399Z,99539.97
2022-12-11T02:59:31.846Z,99535.75
2022-12-11T03:02:20.593Z,99542.41
2022-12-11T03:05:13.968Z,99539.84
2022-12-11T03:08:03.688Z,99537.28
2022-12-11T03:10:52.802Z,99535.63
2022-12-11T03:13:43.309Z,99533.06
2022-12-11T03:16:37.057Z,99533.19
2022-12-11T03:19:33.546Z,99533.19
2022-12-11T03:22:34.310Z,99534.94
2022-12-11T03:25:27.936Z,99537.47
2022-12-11T03:28:21.244Z,99530.63
2022-12-11T03:31:14.551Z,99537.41
2022-12-11T03:34:15.769Z,99539.06
2022-12-11T03:37:07.191Z,99544.19
2022-12-11T03:40:05.086Z,99539.06
2022-12-11T03:42:54.772Z,99533.84
2022-12-11T03:45:44.706Z,99533.97
2022-12-11T03:48:40.506Z,99533.97
2022-12-11T03:51:30.973Z,99532.84
2022-12-11T03:54:20.208Z,99536.22
2022-12-11T03:57:13.426Z,99537.88
2022-12-11T04:00:04.858Z,99537.06
2022-12-11T04:03:16.452Z,99543.19
2022-12-11T04:06:05.403Z,99543.78
2022-12-11T04:08:54.081Z,99550.44
2022-12-11T04:11:42.997Z,99545.34
2022-12-11T04:14:50.509Z,99544.56
2022-12-11T04:17:56.796Z,99538.44
2022-12-11T04:21:03.092Z,99536.69
2022-12-11T04:24:09.312Z,99530.78
2022-12-11T04:26:57.962Z,99528.22
2022-12-11T04:29:48.100Z,99524.00
2022-12-11T04:32:36.909Z,99528.31
2022-12-11T04:35:25.655Z,99528.44
2022-12-11T04:38:14.256Z,99531.09
2022-12-11T04:41:05.779Z,99527.72
2022-12-11T04:43:54.443Z,99537.06
2022-12-11T04:46:44.651Z,99530.41
2022-12-11T04:49:33.352Z,99531.97
2022-12-11T04:52:22.207Z,99526.84
2022-12-11T04:55:12.719Z,99521.84
2022-12-11T04:58:02.031Z,99526.19
2022-12-11T05:00:50.888Z,99518.63
2022-12-11T05:03:41.389Z,99519.59
2022-12-11T05:06:30.417Z,99516.25
2022-12-11T05:09:19.390Z,99525.03
2022-12-11T05:12:08.421Z,99523.38
2022-12-11T05:14:57.289Z,99519.91
2022-12-11T05:17:45.974Z,99521.59
2022-12-11T05:20:36.418Z,99522.56
2022-12-11T05:23:25.343Z,99514.09
2022-12-11T05:26:17.118Z,99507.31
2022-12-11T05:29:05.873Z,99516.78
2022-12-11T05:31:54.449Z,99514.31
2022-12-11T05:34:43.170Z,99510.19
2022-12-11T05:37:35.189Z,99513.63
2022-12-11T05:40:23.844Z,99506.94
2022-12-11T05:43:12.507Z,99509.41
2022-12-11T05:46:08.297Z,99501.84
2022-12-11T05:49:00.339Z,99498.28
2022-12-11T05:51:49.689Z,99513.84
2022-12-11T05:54:40.029Z,99508.72
2022-12-11T05:57:28.705Z,99502.72
2022-12-11T06:00:17.370Z,99510.47
2022-12-11T06:03:06.114Z,99507.13
2022-12-11T06:05:54.902Z,99509.81
2022-12-11T06:08:43.808Z,99495.34
2022-12-11T06:11:35.673Z,99493.69
2022-12-11T06:14:24.318Z,99497.78
2022-12-11T06:17:12.937Z,99497.00
2022-12-11T06:20:01.552Z,99492.78
2022-12-11T06:22:50.228Z,99486.78
2022-12-11T06:25:40.033Z,99482.66
2022-12-11T06:28:30.022Z,99485.22
2022-12-11T06:31:19.447Z,99482.66
2022-12-11T06:34:08.098Z,99481.78
2022-12-11T06:36:57.302Z,99490.22
2022-12-11T06:39:46.066Z,99487.56
2022-12-11T06:42:34.797Z,99486.78
2022-12-11T06:45:25.366Z,99495.34
2022-12-11T06:48:14.473Z,99497.00
2022-12-11T06:51:08.200Z,99500.66
2022-12-11T06:53:58.282Z,99502.31
2022-12-11T06:56:47.332Z,99504.88
2022-12-11T06:59:36.008Z,99499.09
2022-12-11T07:02:26.058Z,99496.63
2022-12-11T07:05:14.703Z,99499.97
2022-12-11T07:08:03.425Z,99499.97
2022-12-11T07:10:52.172Z,99503.31
2022-12-11T07:13:42.117Z,99497.41
2022-12-11T07:16:30.792Z,99499.97
2022-12-11T07:19:20.890Z,99503.53
2022-12-11T07:22:09.491Z,99500.97
2022-12-11T07:24:58.270Z,99501.75
2022-12-11T07:27:47.758Z,99500.16
2022-12-11T07:30:36.374Z,99501.06
2022-12-11T07:33:25.049Z,99505.28
2022-12-11T07:36:16.802Z,99512.16
2022-12-11T07:39:05.919Z,99507.84
2022-12-11T07:41:55.138Z,99505.28
2022-12-11T07:44:43.914Z,99506.16
2022-12-11T07:47:33.077Z,99509.63
2022-12-11T07:50:21.786Z,99512.16
2022-12-11T07:53:12.049Z,99512.88
2022-12-11T07:56:00.926Z,99506.88
2022-12-11T07:58:50.205Z,99509.31
2022-12-11T08:01:40.038Z,99506.66
2022-12-11T08:04:28.752Z,99507.44
2022-12-11T08:07:17.749Z,99505.09
2022-12-11T08:10:08.868Z,99503.44
2022-12-11T08:12:57.492Z,99517.09
2022-12-11T08:15:46.199Z,99520.56
2022-12-11T08:18:38.257Z,99515.50
2022-12-11T08:21:29.036Z,99515.50
2022-12-11T08:24:20.782Z,99517.28
2022-12-11T08:27:10.809Z,99515.63
2022-12-11T08:29:59.539Z,99506.16
2022-12-11T08:32:48.232Z,99507.94
2022-12-11T08:35:40.677Z,99508.84
2022-12-11T08:38:29.299Z,99512.16
2022-12-11T08:41:20.592Z,99516.50
2022-12-11T08:44:16.629Z,99509.72
2022-12-11T08:47:05.871Z,99520.84
2022-12-11T08:49:54.523Z,99510.63
2022-12-11T08:52:43.162Z,99502.06
2022-12-11T08:55:33.086Z,99505.50
2022-12-11T08:58:21.787Z,99503.81
2022-12-11T09:01:14.342Z,99502.16
2022-12-11T09:04:04.379Z,99504.72
2022-12-11T09:06:53.035Z,99502.16
2022-12-11T09:09:41.680Z,99501.38
2022-12-11T09:12:30.501Z,99503.94
2022-12-11T09:15:19.400Z,99499.59
2022-12-11T09:18:10.203Z,99509.84
2022-12-11T09:21:04.025Z,99510.63
2022-12-11T09:23:56.547Z,99513.94
2022-12-11T09:26:45.177Z,99513.06
2022-12-11T09:29:34.099Z,99516.63
2022-12-11T09:32:23.206Z,99508.94
2022-12-11T09:35:13.488Z,99506.38
2022-12-11T09:38:02.331Z,99503.81
2022-12-11T09:40:51.039Z,99506.50
2022-12-11T09:43:44.354Z,99504.78
2022-12-11T09:46:34.912Z,99515.91
2022-12-11T09:49:33.283Z,99505.69
2022-12-11T09:52:32.958Z,99506.50
2022-12-11T09:55:25.222Z,99509.06
2022-12-11T09:58:23.765Z,99500.38
2022-12-11T10:01:23.902Z,99503.94
2022-12-11T10:04:30.038Z,99502.22
2022-12-11T10:07:27.794Z,99493.72
2022-12-11T10:10:32.381Z,99494.56
2022-12-11T10:13:34.185Z,99494.66
2022-12-11T10:16:37.462Z,99498.81
2022-12-11T10:19:29.919Z,99486.03
2022-12-11T10:22:26.083Z,99481.69
2022-12-11T10:25:28.856Z,99479.13
2022-12-11T10:28:20.887Z,99473.91
2022-12-11T10:31:32.987Z,99473.81
2022-12-11T10:34:33.575Z,99475.59
2022-12-11T10:37:22.279Z,99468.69
2022-12-11T10:40:13.985Z,99473.91
2022-12-11T10:43:02.772Z,99473.03
2022-12-11T10:45:53.571Z,99478.25
2022-12-11T10:48:48.562Z,99471.47
2022-12-11T10:51:38.589Z,99471.47
2022-12-11T10:54:34.277Z,99471.47
2022-12-11T10:57:30.258Z,99467.91
2022-12-11T11:00:34.827Z,99467.00
2022-12-11T11:03:27.490Z,99464.34
2022-12-11T11:06:20.671Z,99461.78
2022-12-11T11:09:31.673Z,99461.00
2022-12-11T11:12:27.988Z,99462.00
2022-12-11T11:15:20.660Z,99462.13
2022-12-11T11:18:26.083Z,99453.63
2022-12-11T11:21:18.285Z,99462.19
2022-12-11T11:24:07.102Z,99462.19
2022-12-11T11:27:12.789Z,99463.06
2022-12-11T11:30:09.165Z,99454.72
2022-12-11T11:33:02.244Z,99455.63
2022-12-11T11:35:55.626Z,99450.78
2022-12-11T11:38:50.201Z,99451.69
2022-12-11T11:41:47.851Z,99442.34
2022-12-11T11:44:43.598Z,99443.22
2022-12-11T11:47:39.005Z,99445.78
2022-12-11T11:50:34.039Z,99448.22
2022-12-11T11:53:37.346Z,99451.78
2022-12-11T11:56:34.953Z,99449.22
2022-12-11T11:59:28.907Z,99441.56
2022-12-11T12:02:20.017Z,99444.91
2022-12-11T12:05:14.532Z,99447.53
2022-12-11T12:08:13.969Z,99441.56
2022-12-11T12:11:07.983Z,99428.66
2022-12-11T12:14:29.152Z,99434.66
2022-12-11T12:17:32.571Z,99432.09
2022-12-11T12:20:40.049Z,99438.88
2022-12-11T12:24:01.417Z,99431.09
2022-12-11T12:27:02.606Z,99431.09
2022-12-11T12:30:00.830Z,99429.53
2022-12-11T12:33:03.964Z,99418.53
2022-12-11T12:36:06.556Z,99418.69
2022-12-11T12:42:21.127Z,99417.03
2022-12-11T12:45:23.960Z,99419.69
2022-12-11T12:48:12.605Z,99418.69
2022-12-11T12:51:04.203Z,99417.13
2022-12-11T12:53:59.726Z,99418.81
2022-12-11T12:56:49.794Z,99424.81
2022-12-11T12:59:38.390Z,99420.66
2022-12-11T13:02:27.664Z,99408.69
2022-12-11T13:05:24.557Z,99407.06
2022-12-11T13:08:25.644Z,99402.75
2022-12-11T13:11:18.397Z,99412.97
2022-12-11T13:14:27.073Z,99411.25
2022-12-11T13:17:35.974Z,99405.91
2022-12-11T13:20:28.388Z,99405.91
2022-12-11T13:23:21.941Z,99402.34
2022-12-11T13:26:11.080Z,99407.47
2022-12-11T13:29:00.227Z,99408.28
2022-12-11T13:32:00.377Z,99409.16
2022-12-11T13:34:55.303Z,99399.78
2022-12-11T13:37:46.369Z,99402.47
2022-12-11T13:40:41.398Z,99386.13
2022-12-11T13:43:32.544Z,99403.16
2022-12-11T13:46:26.694Z,99411.69
2022-12-11T13:49:24.987Z,99412.59
2022-12-11T13:52:20.265Z,99417.03
2022-12-11T13:55:24.881Z,99410.34
2022-12-11T13:58:24.504Z,99411.13
2022-12-11T14:01:17.604Z,99403.34
2022-12-11T14:04:14.061Z,99405.91
2022-12-11T14:07:04.359Z,99405.91
2022-12-11T14:09:53.958Z,99410.25
2022-12-11T14:12:48.900Z,99418.91
2022-12-11T14:15:39.499Z,99414.75
2022-12-11T14:18:31.441Z,99418.31
2022-12-11T14:21:23.195Z,99418.31
2022-12-11T14:24:14.483Z,99408.19
2022-12-11T14:27:04.743Z,99396.94
2022-12-11T14:29:53.570Z,99407.88
2022-12-11T14:32:46.088Z,99406.78
2022-12-11T14:35:39.529Z,99417.72
2022-12-11T14:38:33.423Z,99421.88
2022-12-11T14:41:28.568Z,99423.63
2022-12-11T14:44:19.319Z,99420.25
2022-12-11T14:47:15.335Z,99425.59
2022-12-11T14:50:11.350Z,99430.88
2022-12-11T14:53:04.356Z,99430.09
2022-12-11T14:55:53.932Z,99425.00
2022-12-11T14:58:53.345Z,99436.22
2022-12-11T15:01:42.019Z,99445.69
2022-12-11T15:04:32.843Z,99433.84
2022-12-11T15:07:23.147Z,99437.50
2022-12-11T15:10:25.114Z,99438.28
2022-12-11T15:13:16.675Z,99440.94
2022-12-11T15:16:08.396Z,99442.69
2022-12-11T15:18:58.821Z,99437.56
2022-12-11T15:21:47.862Z,99443.56
2022-12-11T15:24:41.028Z,99445.34
2022-12-11T15:27:36.662Z,99432.56
2022-12-11T15:30:36.082Z,99445.47
2022-12-11T15:33:25.814Z,99444.56
2022-12-11T15:36:33.196Z,99445.56
2022-12-11T15:39:21.846Z,99438.56
2022-12-11T15:42:15.149Z,99438.66
2022-12-11T15:45:07.539Z,99439.56
2022-12-11T15:47:57.301Z,99442.91
2022-12-11T15:50:46.102Z,99448.03
2022-12-11T15:53:34.747Z,99443.78
2022-12-11T15:56:23.516Z,99449.81
2022-12-11T15:59:13.915Z,99451.53
2022-12-11T16:02:02.645Z,99443.78
2022-12-11T16:04:51.776Z,99448.91
2022-12-11T16:07:40.864Z,99449.88
2022-12-11T16:10:30.781Z,99448.97
2022-12-11T16:13:19.581Z,99448.19
2022-12-11T16:16:10.294Z,99452.44
2022-12-11T16:18:59.029Z,99451.53
2022-12-11T16:21:48.688Z,99455.88
2022-12-11T16:24:38.226Z,99448.19
2022-12-11T16:27:26.931Z,99445.63
2022-12-11T16:30:16.809Z,99449.09
2022-12-11T16:33:12.502Z,99446.63
2022-12-11T16:36:01.999Z,99439.75
2022-12-11T16:38:53.998Z,99439.75
2022-12-11T16:41:43.006Z,99443.97
2022-12-11T16:44:32.104Z,99444.84
2022-12-11T16:47:20.778Z,99441.41
2022-12-11T16:50:11.422Z,99443.19
2022-12-11T16:53:00.098Z,99442.28
2022-12-11T16:55:48.875Z,99443.06
2022-12-11T16:58:37.904Z,99440.53
2022-12-11T17:01:26.685Z,99442.28
2022-12-11T17:04:15.351Z,99435.41
2022-12-11T17:07:07.357Z,99439.75
2022-12-11T17:09:56.056Z,99426.84
2022-12-11T17:12:44.728Z,99427.72
2022-12-11T17:15:33.538Z,99425.94
2022-12-11T17:18:22.257Z,99425.94
2022-12-11T17:21:14.050Z,99426.84
2022-12-11T17:24:04.481Z,99440.53
2022-12-11T17:26:53.782Z,99439.56
2022-12-11T17:29:42.479Z,99430.09
2022-12-11T17:32:31.192Z,99424.19
2022-12-11T17:35:19.950Z,99427.44
2022-12-11T17:38:08.708Z,99437.56
2022-12-11T17:40:58.936Z,99437.56
2022-12-11T17:43:48.006Z,99437.56
2022-12-11T17:46:37.168Z,99433.16
2022-12-11T17:49:26.121Z,99433.28
2022-12-11T17:52:15.149Z,99438.28
2022-12-11T17:55:04.397Z,99434.06
2022-12-11T17:57:54.473Z,99430.72
2022-12-11T18:00:46.706Z,99431.56
2022-12-11T18:03:35.442Z,99435.00
2022-12-11T18:06:24.089Z,99433.34
2022-12-11T18:09:12.749Z,99434.22
2022-12-11T18:12:02.690Z,99434.22
2022-12-11T18:14:52.746Z,99439.34
2022-12-11T18:17:41.677Z,99437.78
2022-12-11T18:20:32.205Z,99442.91
2022-12-11T18:23:20.857Z,99439.56
2022-12-11T18:26:11.076Z,99440.25
2022-12-11T18:28:59.907Z,99429.09
2022-12-11T18:31:50.332Z,99428.22
2022-12-11T18:34:39.043Z,99434.22
2022-12-11T18:37:28.240Z,99443.56
2022-12-11T18:40:16.955Z,99438.38
2022-12-11T18:43:05.686Z,99434.13
2022-12-11T18:45:54.360Z,99442.78
2022-12-11T18:48:45.891Z,99436.00
2022-12-11T18:51:34.867Z,99433.44
2022-12-11T18:54:23.568Z,99447.25
2022-12-11T18:57:12.484Z,99437.78
2022-12-11T19:00:07.099Z,99436.19
2022-12-11T19:02:55.787Z,99434.44
2022-12-11T19:05:45.850Z,99436.19
2022-12-11T19:08:16.217Z,99439.75
2022-12-11T19:10:48.407Z,99442.41
2022-12-11T19:13:17.027Z,99430.50
2022-12-11T19:15:47.154Z,99448.53
2022-12-11T19:18:15.675Z,99447.69
2022-12-11T19:20:52.215Z,99451.25
2022-12-11T19:23:24.360Z,99453.03
2022-12-11T19:25:52.819Z,99446.25
2022-12-11T19:28:21.881Z,99451.34
2022-12-11T19:30:51.024Z,99444.56
2022-12-11T19:33:19.480Z,99442.97
2022-12-11T19:35:49.343Z,99446.41
2022-12-11T19:38:17.797Z,99442.19
2022-12-11T19:40:46.450Z,99440.50
2022-12-11T19:43:14.959Z,99443.06
2022-12-11T19:45:45.752Z,99444.84
2022-12-11T19:48:14.913Z,99441.41
2022-12-11T19:50:43.434Z,99439.72
2022-12-11T19:53:13.441Z,99439.84
2022-12-11T19:55:42.202Z,99442.41
2022-12-11T19:58:10.573Z,99438.94
2022-12-11T20:00:39.223Z,99434.78
2022-12-11T20:03:07.772Z,99450.94
2022-12-11T20:05:37.292Z,99437.34
2022-12-11T20:08:35.734Z,99431.34
2022-12-11T20:10:56.107Z,99432.94
2022-12-11T20:13:24.651Z,99434.72
2022-12-11T20:15:53.382Z,99434.59
2022-12-11T20:18:21.959Z,99439.72
2022-12-11T20:20:50.369Z,99438.94
2022-12-11T20:23:18.999Z,99440.69
2022-12-11T20:25:47.801Z,99432.94
2022-12-11T20:28:18.225Z,99434.78
2022-12-11T20:30:46.699Z,99436.38
2022-12-11T20:33:15.789Z,99438.06
2022-12-11T20:35:46.130Z,99437.94
2022-12-11T20:38:14.630Z,99445.63
2022-12-11T20:40:47.291Z,99433.63
2022-12-11T20:43:17.180Z,99448.97
2022-12-11T20:45:49.485Z,99442.06
2022-12-11T20:48:19.727Z,99431.06
2022-12-11T20:50:48.267Z,99431.06
2022-12-11T20:53:16.733Z,99425.16
2022-12-11T20:55:45.419Z,99426.03
2022-12-11T20:58:13.875Z,99424.25
2022-12-11T21:00:44.117Z,99424.25
2022-12-11T21:03:12.552Z,99426.94
2022-12-11T21:05:42.840Z,99430.38
2022-12-11T21:08:11.724Z,99426.03
2022-12-11T21:10:43.709Z,99429.59
2022-12-11T21:13:12.254Z,99424.25
2022-12-11T21:15:43.281Z,99427.72
2022-12-11T21:18:11.713Z,99437.94
2022-12-11T21:20:40.053Z,99437.94
2022-12-11T21:23:08.488Z,99436.06
2022-12-11T21:25:40.534Z,99435.22
2022-12-11T21:28:09.321Z,99449.59
2022-12-11T21:30:41.312Z,99441.91
2022-12-11T21:33:11.209Z,99447.81
2022-12-11T21:35:39.794Z,99443.56
2022-12-11T21:38:08.278Z,99448.59
2022-12-11T21:40:36.886Z,99449.38
2022-12-11T21:43:05.246Z,99449.31
2022-12-11T21:46:00.523Z,99451.94
2022-12-11T21:48:27.592Z,99448.53
2022-12-11T21:50:56.047Z,99435.72
2022-12-11T21:53:24.446Z,99437.47
2022-12-11T21:55:54.251Z,99434.91
2022-12-11T21:58:23.176Z,99441.91
2022-12-11T22:00:51.697Z,99447.03
2022-12-11T22:03:20.162Z,99434.22
2022-12-11T22:05:50.472Z,99453.13
2022-12-11T22:08:19.058Z,99444.56
2022-12-11T22:10:47.751Z,99460.00
2022-12-11T22:13:16.298Z,99455.75
2022-12-11T22:15:44.987Z,99462.56
2022-12-11T22:18:13.548Z,99461.00
2022-12-11T22:20:42.341Z,99454.88
2022-12-11T22:23:12.771Z,99460.00
2022-12-11T22:25:41.766Z,99456.53
2022-12-11T22:28:10.422Z,99467.69
2022-12-11T22:30:39.820Z,99465.94
2022-12-11T22:33:08.713Z,99456.47
2022-12-11T22:35:37.308Z,99465.06
2022-12-11T22:38:06.473Z,99466.78
2022-12-11T22:40:40.598Z,99473.63
2022-12-11T22:43:09.180Z,99467.69
2022-12-11T22:45:40.968Z,99469.47
2022-12-11T22:48:10.380Z,99457.38
2022-12-11T22:50:41.635Z,99464.94
2022-12-11T22:53:10.826Z,99465.72
2022-12-11T22:55:41.232Z,99466.44
2022-12-11T22:58:09.569Z,99457.75
2022-12-11T23:00:37.976Z,99465.44
2022-12-11T23:03:06.874Z,99462.00
2022-12-11T23:05:35.445Z,99466.34
2022-12-11T23:08:04.323Z,99458.66
2022-12-11T23:10:32.761Z,99459.53
2022-12-11T23:13:03.328Z,99471.56
2022-12-11T23:15:32.113Z,99468.88
2022-12-11T23:18:02.021Z,99465.44
2022-12-11T23:20:30.878Z,99473.00
2022-12-11T23:22:59.376Z,99478.13
2022-12-11T23:25:28.124Z,99482.47
2022-12-11T23:27:56.571Z,99474.78
2022-12-11T23:30:26.395Z,99480.69
2022-12-11T23:32:54.836Z,99472.13
2022-12-11T23:35:23.642Z,99484.03
2022-12-11T23:37:52.085Z,99479.69
2022-12-11T23:40:20.684Z,99481.47
2022-12-11T23:42:49.701Z,99475.28
2022-12-11T23:45:21.090Z,99472.91
2022-12-11T23:47:51.411Z,99476.28
2022-12-11T23:50:20.529Z,99466.81
2022-12-11T23:52:49.157Z,99477.13
2022-12-11T23:55:17.798Z,99472.91
2022-12-11T23:57:46.182Z,99483.25
